Time,TemperatureF,DewpointF,PressureIn,WindDirection,WindDirectionDegrees,WindSpeedMPH,WindSpeedGustMPH,Humidity,HourlyPrecipIn,Conditions,Clouds,dailyrainin,SoftwareType,DateUTC
2012-11-01 00:01:00,52.0,51.7,29.69,WNW,292,0.0,0.0,99,0.00,,,0.00,WUHU21623XXSP,2012-11-01 07:01:00,
2012-11-01 00:06:00,52.0,51.7,29.69,WNW,292,0.0,0.0,99,0.00,,,0.00,WUHU21623XXSP,2012-11-01 07:06:00,
2012-11-01 00:11:00,52.0,51.7,29.69,WNW,292,0.0,0.0,99,0.00,,,0.00,WUHU21623XXSP,2012-11-01 07:11:00,
2012-11-01 00:16:00,52.0,51.7,29.69,WNW,292,0.0,0.0,99,0.00,,,0.00,WUHU21623XXSP,2012-11-01 07:16:00,
2012-11-01 00:21:00,51.8,51.5,29.69,WNW,292,0.0,0.0,99,0.00,,,0.00,WUHU21623XXSP,2012-11-01 07:21:00,
2012-11-01 00:26:00,51.8,51.5,29.69,WNW,292,0.0,0.0,99,0.00,,,0.00,WUHU21623XXSP,2012-11-01 07:26:00,
2012-11-01 00:31:00,51.8,51.5,29.69,NW,315,0.0,0.0,99,0.00,,,0.00,WUHU21623XXSP,2012-11-01 07:31:00,
2012-11-01 00:36:00,51.8,51.5,29.69,NW,315,0.0,0.0,99,0.00,,,0.00,WUHU21623XXSP,2012-11-01 07:36:00,
2012-11-01 00:41:00,51.8,51.5,29.69,NW,315,0.0,0.0,99,0.00,,,0.00,WUHU21623XXSP,2012-11-01 07:41:00,
2012-11-01 00:46:00,51.8,51.5,29.69,NNW,337,0.0,0.0,99,0.00,,,0.00,WUHU21623XXSP,2012-11-01 07:46:00,
2012-11-01 00:51:00,51.6,51.3,29.68,North,0,0.0,0.0,99,0.00,,,0.00,WUHU21623XXSP,2012-11-01 07:51:00,
2012-11-01 00:56:00,51.6,51.3,29.68,NNE,22,0.0,0.0,99,0.00,,,0.00,WUHU21623XXSP,2012-11-01 07:56:00,
2012-11-01 01:01:00,51.6,51.3,29.68,NNE,22,0.0,0.0,99,0.00,,,0.00,WUHU21623XXSP,2012-11-01 08:01:00,
2012-11-01 01:06:00,51.6,51.3,29.68,NNE,22,0.0,0.0,99,0.00,,,0.00,WUHU21623XXSP,2012-11-01 08:06:00,
2012-11-01 01:11:00,51.6,51.3,29.69,NNE,22,0.0,0.0,99,0.00,,,0.00,WUHU21623XXSP,2012-11-01 08:11:00,
2012-11-01 01:16:00,51.6,51.3,29.69,NNE,22,0.0,0.0,99,0.00,,,0.00,WUHU21623XXSP,2012-11-01 08:16:00,
2012-11-01 01:21:00,51.6,51.3,29.69,NNE,22,0.0,0.0,99,0.00,,,0.00,WUHU21623XXSP,2012-11-01 08:21:00,
2012-11-01 01:26:00,51.6,51.3,29.69,NNE,22,0.0,0.0,99,0.00,,,0.00,WUHU21623XXSP,2012-11-01 08:26:00,
2012-11-01 01:31:00,51.6,51.3,29.71,WSW,247,0.0,0.0,99,0.00,,,0.00,WUHU21623XXSP,2012-11-01 08:31:00,
2012-11-01 01:36:00,51.6,51.3,29.71,WSW,247,0.0,0.0,99,0.00,,,0.00,WUHU21623XXSP,2012-11-01 08:36:00,
2012-11-01 01:41:00,51.6,51.3,29.70,WSW,247,0.0,0.0,99,0.00,,,0.00,WUHU21623XXSP,2012-11-01 08:41:00,
2012-11-01 01:46:00,51.6,51.3,29.70,WSW,247,0.0,0.0,99,0.00,,,0.00,WUHU21623XXSP,2012-11-01 08:46:00,
2012-11-01 01:51:00,51.6,51.3,29.70,WSW,247,0.0,0.0,99,0.00,,,0.00,WUHU21623XXSP,2012-11-01 08:51:00,
2012-11-01 01:56:00,51.6,51.3,29.70,NE,45,0.0,0.0,99,0.00,,,0.00,WUHU21623XXSP,2012-11-01 08:56:00,
2012-11-01 02:01:00,51.6,51.3,29.70,NE,45,0.0,0.0,99,0.00,,,0.00,WUHU21623XXSP,2012-11-01 09:01:00,
2012-11-01 02:06:00,51.6,51.3,29.70,NE,45,0.0,0.0,99,0.00,,,0.00,WUHU21623XXSP,2012-11-01 09:06:00,
2012-11-01 02:11:00,51.6,51.3,29.70,ESE,112,0.0,0.0,99,0.00,,,0.00,WUHU21623XXSP,2012-11-01 09:11:00,
2012-11-01 02:16:00,51.6,51.3,29.70,NE,45,0.0,0.0,99,0.00,,,0.00,WUHU21623XXSP,2012-11-01 09:16:00,
2012-11-01 02:21:00,51.4,51.2,29.70,NE,45,0.0,0.0,99,0.00,,,0.00,WUHU21623XXSP,2012-11-01 09:21:00,
2012-11-01 02:26:00,51.4,51.2,29.70,ENE,67,0.0,0.0,99,0.00,,,0.00,WUHU21623XXSP,2012-11-01 09:26:00,
2012-11-01 02:31:00,51.4,51.2,29.70,ENE,67,0.0,0.0,99,0.00,,,0.00,WUHU21623XXSP,2012-11-01 09:31:00,
2012-11-01 02:36:00,51.4,51.2,29.70,ENE,67,0.0,0.0,99,0.00,,,0.00,WUHU21623XXSP,2012-11-01 09:36:00,
2012-11-01 02:41:00,51.4,51.2,29.70,ENE,67,0.0,0.0,99,0.00,,,0.00,WUHU21623XXSP,2012-11-01 09:41:00,
2012-11-01 02:46:00,51.4,51.2,29.70,ENE,67,0.0,0.0,99,0.00,,,0.00,WUHU21623XXSP,2012-11-01 09:46:00,
2012-11-01 02:51:00,51.4,51.2,29.70,ENE,67,0.0,0.0,99,0.00,,,0.00,WUHU21623XXSP,2012-11-01 09:51:00,
2012-11-01 02:56:00,51.4,51.2,29.70,ENE,67,0.0,0.0,99,0.00,,,0.00,WUHU21623XXSP,2012-11-01 09:56:00,
2012-11-01 03:01:00,51.4,51.2,29.70,ENE,67,0.0,0.0,99,0.00,,,0.00,WUHU21623XXSP,2012-11-01 10:01:00,
2012-11-01 03:06:00,51.4,51.2,29.69,ENE,67,0.0,0.0,99,0.00,,,0.00,WUHU21623XXSP,2012-11-01 10:06:00,
2012-11-01 03:11:00,51.3,51.0,29.69,ENE,67,0.0,0.0,99,0.00,,,0.00,WUHU21623XXSP,2012-11-01 10:11:00,
2012-11-01 03:16:00,51.3,51.0,29.69,ENE,67,0.0,0.0,99,0.00,,,0.00,WUHU21623XXSP,2012-11-01 10:16:00,
2012-11-01 03:21:00,51.3,51.0,29.69,ENE,67,0.0,0.0,99,0.00,,,0.00,WUHU21623XXSP,2012-11-01 10:21:00,
2012-11-01 03:26:00,51.3,51.0,29.69,ENE,67,0.0,0.0,99,0.00,,,0.00,WUHU21623XXSP,2012-11-01 10:26:00,
2012-11-01 03:31:00,51.3,51.0,29.69,ENE,67,0.0,0.0,99,0.00,,,0.00,WUHU21623XXSP,2012-11-01 10:31:00,
2012-11-01 03:36:00,51.3,51.0,29.69,ENE,67,0.0,0.0,99,0.00,,,0.00,WUHU21623XXSP,2012-11-01 10:36:00,
2012-11-01 03:41:00,51.3,51.0,29.69,ENE,67,0.0,0.0,99,0.00,,,0.00,WUHU21623XXSP,2012-11-01 10:41:00,
2012-11-01 03:46:00,51.1,50.8,29.69,ENE,67,0.0,0.0,99,0.00,,,0.00,WUHU21623XXSP,2012-11-01 10:46:00,
2012-11-01 03:51:00,51.3,51.0,29.69,ENE,67,0.0,0.0,99,0.00,,,0.00,WUHU21623XXSP,2012-11-01 10:51:00,
2012-11-01 03:56:00,51.1,50.8,29.69,ENE,67,0.0,0.0,99,0.00,,,0.00,WUHU21623XXSP,2012-11-01 10:56:00,
2012-11-01 04:01:00,51.1,50.8,29.69,ENE,67,0.0,0.0,99,0.00,,,0.00,WUHU21623XXSP,2012-11-01 11:01:00,
2012-11-01 04:06:00,51.1,50.8,29.70,ENE,67,0.0,0.0,99,0.00,,,0.00,WUHU21623XXSP,2012-11-01 11:06:00,
2012-11-01 04:11:00,51.1,50.8,29.70,ENE,67,0.0,0.0,99,0.00,,,0.00,WUHU21623XXSP,2012-11-01 11:11:00,
2012-11-01 04:16:00,51.1,50.8,29.70,ENE,67,0.0,0.0,99,0.00,,,0.00,WUHU21623XXSP,2012-11-01 11:16:00,
2012-11-01 04:21:00,51.1,50.8,29.70,ENE,67,0.0,0.0,99,0.00,,,0.00,WUHU21623XXSP,2012-11-01 11:21:00,
2012-11-01 04:26:00,51.1,50.8,29.70,ENE,67,0.0,0.0,99,0.00,,,0.00,WUHU21623XXSP,2012-11-01 11:26:00,
2012-11-01 04:31:00,51.1,50.8,29.70,ENE,67,0.0,0.0,99,0.00,,,0.00,WUHU21623XXSP,2012-11-01 11:31:00,
2012-11-01 04:36:00,51.1,50.8,29.70,ENE,67,0.0,0.0,99,0.00,,,0.00,WUHU21623XXSP,2012-11-01 11:36:00,
2012-11-01 04:41:00,51.1,50.8,29.71,ENE,67,0.0,0.0,99,0.00,,,0.00,WUHU21623XXSP,2012-11-01 11:41:00,
2012-11-01 04:46:00,51.1,50.8,29.71,ENE,67,0.0,0.0,99,0.00,,,0.00,WUHU21623XXSP,2012-11-01 11:46:00,
2012-11-01 04:51:00,50.9,50.6,29.71,ENE,67,0.0,0.0,99,0.00,,,0.00,WUHU21623XXSP,2012-11-01 11:51:00,
2012-11-01 04:56:00,50.9,50.6,29.71,ENE,67,0.0,0.0,99,0.00,,,0.00,WUHU21623XXSP,2012-11-01 11:56:00,
2012-11-01 05:01:00,50.9,50.6,29.71,ENE,67,0.0,0.0,99,0.00,,,0.00,WUHU21623XXSP,2012-11-01 12:01:00,
2012-11-01 05:06:00,50.9,50.6,29.71,ENE,67,0.0,0.0,99,0.00,,,0.00,WUHU21623XXSP,2012-11-01 12:06:00,
2012-11-01 05:11:00,50.9,50.6,29.71,ENE,67,0.0,0.0,99,0.00,,,0.00,WUHU21623XXSP,2012-11-01 12:11:00,
2012-11-01 05:16:00,50.9,50.6,29.71,ENE,67,0.0,0.0,99,0.00,,,0.00,WUHU21623XXSP,2012-11-01 12:16:00,
2012-11-01 05:21:00,50.9,50.6,29.71,ENE,67,0.0,0.0,99,0.00,,,0.00,WUHU21623XXSP,2012-11-01 12:21:00,
2012-11-01 05:26:00,50.9,50.6,29.71,ENE,67,0.0,0.0,99,0.00,,,0.00,WUHU21623XXSP,2012-11-01 12:26:00,
2012-11-01 05:31:00,50.9,50.6,29.71,ENE,67,0.0,0.0,99,0.00,,,0.00,WUHU21623XXSP,2012-11-01 12:31:00,
2012-11-01 05:36:00,50.9,50.6,29.71,ENE,67,0.0,0.0,99,0.00,,,0.00,WUHU21623XXSP,2012-11-01 12:36:00,
2012-11-01 05:41:00,50.7,50.4,29.72,ENE,67,0.0,0.0,99,0.00,,,0.00,WUHU21623XXSP,2012-11-01 12:41:00,
2012-11-01 05:46:00,50.7,50.4,29.72,ENE,67,0.0,0.0,99,0.00,,,0.00,WUHU21623XXSP,2012-11-01 12:46:00,
2012-11-01 05:51:00,50.7,50.4,29.72,ENE,67,0.0,0.0,99,0.00,,,0.00,WUHU21623XXSP,2012-11-01 12:51:00,
2012-11-01 05:56:00,50.7,50.4,29.72,ENE,67,0.0,0.0,99,0.00,,,0.00,WUHU21623XXSP,2012-11-01 12:56:00,
2012-11-01 06:01:00,50.7,50.4,29.73,ENE,67,0.0,0.0,99,0.00,,,0.00,WUHU21623XXSP,2012-11-01 13:01:00,
2012-11-01 06:06:00,50.7,50.4,29.73,ENE,67,0.0,0.0,99,0.00,,,0.00,WUHU21623XXSP,2012-11-01 13:06:00,
2012-11-01 06:11:00,50.7,50.4,29.73,ENE,67,0.0,0.0,99,0.00,,,0.00,WUHU21623XXSP,2012-11-01 13:11:00,
2012-11-01 06:16:00,50.7,50.4,29.73,ENE,67,0.0,0.0,99,0.00,,,0.00,WUHU21623XXSP,2012-11-01 13:16:00,
2012-11-01 06:21:00,50.7,50.4,29.73,ENE,67,0.0,0.0,99,0.00,,,0.00,WUHU21623XXSP,2012-11-01 13:21:00,
2012-11-01 06:26:00,50.7,50.4,29.73,ENE,67,0.0,0.0,99,0.00,,,0.00,WUHU21623XXSP,2012-11-01 13:26:00,
2012-11-01 06:31:00,50.7,50.4,29.73,ENE,67,0.0,0.0,99,0.00,,,0.00,WUHU21623XXSP,2012-11-01 13:31:00,
2012-11-01 06:36:00,50.7,50.4,29.73,ENE,67,0.0,0.0,99,0.00,,,0.00,WUHU21623XXSP,2012-11-01 13:36:00,
2012-11-01 06:41:00,50.7,50.4,29.73,ENE,67,0.0,0.0,99,0.00,,,0.00,WUHU21623XXSP,2012-11-01 13:41:00,
2012-11-01 06:46:00,50.7,50.4,29.73,ENE,67,0.0,0.0,99,0.00,,,0.00,WUHU21623XXSP,2012-11-01 13:46:00,
2012-11-01 06:51:00,50.7,50.4,29.73,SE,135,0.0,0.0,99,0.00,,,0.00,WUHU21623XXSP,2012-11-01 13:51:00,
2012-11-01 06:56:00,50.7,50.4,29.73,East,90,0.0,0.0,99,0.00,,,0.00,WUHU21623XXSP,2012-11-01 13:56:00,
2012-11-01 07:01:00,50.7,50.4,29.73,ESE,112,0.0,0.0,99,0.00,,,0.00,WUHU21623XXSP,2012-11-01 14:01:00,
2012-11-01 07:06:00,50.7,50.4,29.73,ESE,112,0.0,0.0,99,0.00,,,0.00,WUHU21623XXSP,2012-11-01 14:06:00,
2012-11-01 07:11:00,50.7,50.4,29.74,ESE,112,0.0,0.0,99,0.00,,,0.00,WUHU21623XXSP,2012-11-01 14:11:00,
2012-11-01 07:16:00,50.7,50.4,29.73,SE,135,0.0,0.0,99,0.00,,,0.00,WUHU21623XXSP,2012-11-01 14:16:00,
2012-11-01 07:21:00,50.5,50.0,29.74,ESE,112,0.0,0.0,98,0.00,,,0.00,WUHU21623XXSP,2012-11-01 14:21:00,
2012-11-01 07:26:00,50.5,50.0,29.74,SE,135,0.0,0.0,98,0.00,,,0.00,WUHU21623XXSP,2012-11-01 14:26:00,
2012-11-01 07:31:00,50.5,50.0,29.74,ESE,112,0.0,0.0,98,0.00,,,0.00,WUHU21623XXSP,2012-11-01 14:31:00,
2012-11-01 07:36:00,50.4,49.8,29.74,ESE,112,0.0,0.0,98,0.00,,,0.00,WUHU21623XXSP,2012-11-01 14:36:00,
2012-11-01 07:41:00,50.4,49.8,29.74,ESE,112,0.0,0.0,98,0.00,,,0.00,WUHU21623XXSP,2012-11-01 14:41:00,
2012-11-01 07:46:00,50.2,49.8,29.75,ESE,112,0.0,0.0,98,0.00,,,0.00,WUHU21623XXSP,2012-11-01 14:46:00,
2012-11-01 07:51:00,50.2,49.6,29.75,ESE,112,0.0,0.0,98,0.00,,,0.00,WUHU21623XXSP,2012-11-01 14:51:00,
2012-11-01 07:56:00,50.2,49.6,29.75,ESE,112,0.0,0.0,98,0.00,,,0.00,WUHU21623XXSP,2012-11-01 14:56:00,
2012-11-01 08:01:00,50.2,49.6,29.75,ESE,112,0.0,0.0,98,0.00,,,0.00,WUHU21623XXSP,2012-11-01 15:01:00,
2012-11-01 08:06:00,50.2,49.6,29.75,ESE,112,0.0,0.0,98,0.00,,,0.00,WUHU21623XXSP,2012-11-01 15:06:00,
2012-11-01 08:11:00,50.2,49.6,29.75,ESE,112,0.0,0.0,98,0.00,,,0.00,WUHU21623XXSP,2012-11-01 15:11:00,
2012-11-01 08:16:00,50.2,49.6,29.75,ESE,112,0.0,0.0,98,0.00,,,0.00,WUHU21623XXSP,2012-11-01 15:16:00,
2012-11-01 08:21:00,50.0,49.4,29.75,ESE,112,0.0,0.0,98,0.00,,,0.00,WUHU21623XXSP,2012-11-01 15:21:00,
2012-11-01 08:26:00,50.2,49.6,29.76,ESE,112,0.0,0.0,98,0.00,,,0.00,WUHU21623XXSP,2012-11-01 15:26:00,
2012-11-01 08:31:00,50.2,49.6,29.76,ESE,112,0.0,0.0,98,0.00,,,0.00,WUHU21623XXSP,2012-11-01 15:31:00,
2012-11-01 08:36:00,50.2,49.6,29.76,ESE,112,0.0,0.0,98,0.00,,,0.00,WUHU21623XXSP,2012-11-01 15:36:00,
2012-11-01 08:41:00,50.2,49.9,29.76,ESE,112,0.0,0.0,99,0.00,,,0.00,WUHU21623XXSP,2012-11-01 15:41:00,
2012-11-01 08:46:00,50.4,50.1,29.76,ESE,112,0.0,0.0,99,0.00,,,0.00,WUHU21623XXSP,2012-11-01 15:46:00,
2012-11-01 08:51:00,50.4,50.1,29.76,ESE,112,0.0,0.0,99,0.00,,,0.00,WUHU21623XXSP,2012-11-01 15:51:00,
2012-11-01 08:56:00,50.4,50.1,29.77,ESE,112,0.0,0.0,99,0.00,,,0.00,WUHU21623XXSP,2012-11-01 15:56:00,
2012-11-01 09:01:00,50.5,50.0,29.77,ESE,112,0.0,0.0,98,0.00,,,0.00,WUHU21623XXSP,2012-11-01 16:01:00,
2012-11-01 09:06:00,50.5,50.0,29.77,ENE,67,0.0,0.0,98,0.00,,,0.00,WUHU21623XXSP,2012-11-01 16:06:00,
2012-11-01 09:11:00,50.5,50.0,29.77,ENE,67,0.0,0.0,98,0.00,,,0.00,WUHU21623XXSP,2012-11-01 16:11:00,
2012-11-01 09:16:00,50.5,50.0,29.77,ENE,67,0.0,0.0,98,0.00,,,0.00,WUHU21623XXSP,2012-11-01 16:16:00,
2012-11-01 09:21:00,50.7,50.4,29.77,ENE,67,0.0,0.0,99,0.00,,,0.00,WUHU21623XXSP,2012-11-01 16:21:00,
2012-11-01 09:26:00,50.7,50.4,29.77,ENE,67,0.0,0.0,99,0.00,,,0.00,WUHU21623XXSP,2012-11-01 16:26:00,
2012-11-01 09:31:00,50.7,50.4,29.77,ENE,67,0.0,0.0,99,0.00,,,0.00,WUHU21623XXSP,2012-11-01 16:31:00,
2012-11-01 09:36:00,50.7,50.4,29.77,ENE,67,0.0,0.0,99,0.00,,,0.00,WUHU21623XXSP,2012-11-01 16:36:00,
2012-11-01 09:41:00,51.1,50.8,29.78,ENE,67,0.0,0.0,99,0.00,,,0.00,WUHU21623XXSP,2012-11-01 16:41:00,
2012-11-01 09:46:00,51.1,50.8,29.78,ENE,67,0.0,0.0,99,0.00,,,0.00,WUHU21623XXSP,2012-11-01 16:46:00,
2012-11-01 09:51:00,51.3,51.0,29.78,ENE,67,0.0,0.0,99,0.00,,,0.00,WUHU21623XXSP,2012-11-01 16:51:00,
2012-11-01 09:56:00,51.3,51.0,29.78,ENE,67,0.0,0.0,99,0.00,,,0.00,WUHU21623XXSP,2012-11-01 16:56:00,
2012-11-01 10:01:00,51.3,51.0,29.78,ENE,67,0.0,0.0,99,0.00,,,0.00,WUHU21623XXSP,2012-11-01 17:01:00,
2012-11-01 10:06:00,51.1,50.8,29.78,ENE,67,0.0,0.0,99,0.00,,,0.00,WUHU21623XXSP,2012-11-01 17:06:00,
2012-11-01 10:11:00,51.3,51.0,29.78,ENE,67,0.0,0.0,99,0.00,,,0.00,WUHU21623XXSP,2012-11-01 17:11:00,
2012-11-01 10:16:00,51.4,51.2,29.79,ENE,67,0.0,0.0,99,0.00,,,0.00,WUHU21623XXSP,2012-11-01 17:16:00,
2012-11-01 10:21:00,51.4,51.2,29.79,ENE,67,0.0,0.0,99,0.00,,,0.00,WUHU21623XXSP,2012-11-01 17:21:00,
2012-11-01 10:26:00,51.4,51.2,29.79,ENE,67,0.0,0.0,99,0.00,,,0.00,WUHU21623XXSP,2012-11-01 17:26:00,
2012-11-01 10:31:00,51.6,51.3,29.79,ENE,67,0.0,0.0,99,0.00,,,0.00,WUHU21623XXSP,2012-11-01 17:31:00,
2012-11-01 10:36:00,51.6,51.3,29.79,ENE,67,0.0,0.0,99,0.00,,,0.00,WUHU21623XXSP,2012-11-01 17:36:00,
2012-11-01 10:41:00,51.6,51.3,29.79,ENE,67,0.0,0.0,99,0.00,,,0.00,WUHU21623XXSP,2012-11-01 17:41:00,
2012-11-01 10:46:00,51.8,51.3,29.79,ENE,67,0.0,0.0,99,0.00,,,0.00,WUHU21623XXSP,2012-11-01 17:46:00,
2012-11-01 10:51:00,51.8,51.5,29.79,ENE,67,0.0,0.0,99,0.00,,,0.00,WUHU21623XXSP,2012-11-01 17:51:00,
2012-11-01 10:56:00,51.6,51.3,29.79,NE,45,0.0,0.0,99,0.00,,,0.00,WUHU21623XXSP,2012-11-01 17:56:00,
2012-11-01 11:01:00,51.6,51.3,29.79,ENE,67,0.0,0.0,99,0.00,,,0.00,WUHU21623XXSP,2012-11-01 18:01:00,
2012-11-01 11:06:00,51.6,51.3,29.79,ENE,67,0.0,0.0,99,0.00,,,0.00,WUHU21623XXSP,2012-11-01 18:06:00,
2012-11-01 11:11:00,51.6,51.3,29.79,ENE,67,0.0,0.0,99,0.00,,,0.00,WUHU21623XXSP,2012-11-01 18:11:00,
2012-11-01 11:16:00,51.6,51.3,29.80,ENE,67,0.0,0.0,99,0.00,,,0.00,WUHU21623XXSP,2012-11-01 18:16:00,
2012-11-01 11:21:00,51.6,51.3,29.80,ENE,67,0.0,0.0,99,0.00,,,0.00,WUHU21623XXSP,2012-11-01 18:21:00,
2012-11-01 11:26:00,51.6,51.3,29.80,ENE,67,0.0,0.0,99,0.00,,,0.00,WUHU21623XXSP,2012-11-01 18:26:00,
2012-11-01 11:31:00,51.6,51.3,29.80,ENE,67,0.0,0.0,99,0.00,,,0.00,WUHU21623XXSP,2012-11-01 18:31:00,
2012-11-01 11:36:00,51.6,51.3,29.80,ENE,67,0.0,0.0,99,0.00,,,0.00,WUHU21623XXSP,2012-11-01 18:36:00,
2012-11-01 11:41:00,51.6,51.3,29.81,ENE,67,0.0,0.0,99,0.00,,,0.00,WUHU21623XXSP,2012-11-01 18:41:00,
2012-11-01 11:46:00,52.0,51.7,29.81,ENE,67,0.0,0.0,99,0.00,,,0.00,WUHU21623XXSP,2012-11-01 18:46:00,
2012-11-01 11:51:00,51.8,51.5,29.81,ENE,67,0.0,0.0,99,0.00,,,0.00,WUHU21623XXSP,2012-11-01 18:51:00,
2012-11-01 11:56:00,52.0,51.7,29.81,ENE,67,0.0,0.0,99,0.00,,,0.00,WUHU21623XXSP,2012-11-01 18:56:00,
2012-11-01 12:01:00,52.0,51.7,29.81,NNE,22,0.0,0.0,99,0.00,,,0.00,WUHU21623XXSP,2012-11-01 19:01:00,
2012-11-01 12:06:00,52.0,51.7,29.81,NNE,22,0.0,0.0,99,0.00,,,0.00,WUHU21623XXSP,2012-11-01 19:06:00,
2012-11-01 12:11:00,52.2,51.9,29.81,NNE,22,0.0,0.0,99,0.00,,,0.00,WUHU21623XXSP,2012-11-01 19:11:00,
2012-11-01 12:16:00,52.3,51.8,29.81,NNE,22,0.0,0.0,98,0.00,,,0.00,WUHU21623XXSP,2012-11-01 19:16:00,
2012-11-01 12:21:00,52.5,51.8,29.81,NNE,22,0.0,0.0,98,0.00,,,0.00,WUHU21623XXSP,2012-11-01 19:21:00,
2012-11-01 12:26:00,52.5,51.9,29.81,NNE,22,0.0,0.0,98,0.00,,,0.00,WUHU21623XXSP,2012-11-01 19:26:00,
2012-11-01 12:31:00,52.7,52.2,29.81,NNE,22,0.0,0.0,99,0.00,,,0.00,WUHU21623XXSP,2012-11-01 19:31:00,
2012-11-01 12:36:00,52.7,52.1,29.81,NNE,22,0.0,0.0,98,0.00,,,0.00,WUHU21623XXSP,2012-11-01 19:36:00,
2012-11-01 12:41:00,52.9,52.3,29.81,NNE,22,0.0,0.0,98,0.00,,,0.00,WUHU21623XXSP,2012-11-01 19:41:00,
2012-11-01 12:46:00,52.9,52.3,29.81,ENE,67,0.0,0.0,98,0.00,,,0.00,WUHU21623XXSP,2012-11-01 19:46:00,
2012-11-01 12:51:00,53.2,52.7,29.81,ENE,67,0.0,0.0,98,0.00,,,0.00,WUHU21623XXSP,2012-11-01 19:51:00,
2012-11-01 12:56:00,53.4,52.8,29.81,NE,45,0.0,0.0,98,0.00,,,0.00,WUHU21623XXSP,2012-11-01 19:56:00,
2012-11-01 13:01:00,53.8,53.2,29.82,NE,45,0.0,0.0,98,0.00,,,0.00,WUHU21623XXSP,2012-11-01 20:01:00,
2012-11-01 13:06:00,53.8,53.2,29.82,NE,45,0.0,0.0,98,0.00,,,0.00,WUHU21623XXSP,2012-11-01 20:06:00,
2012-11-01 13:11:00,53.8,53.2,29.82,NE,45,0.0,0.0,98,0.00,,,0.00,WUHU21623XXSP,2012-11-01 20:11:00,
2012-11-01 13:16:00,54.1,53.6,29.82,NE,45,0.0,0.0,98,0.00,,,0.00,WUHU21623XXSP,2012-11-01 20:16:00,
2012-11-01 13:21:00,54.1,53.6,29.82,ENE,67,0.0,0.0,98,0.00,,,0.00,WUHU21623XXSP,2012-11-01 20:21:00,
2012-11-01 13:26:00,54.3,53.7,29.82,ENE,67,0.0,0.0,98,0.00,,,0.00,WUHU21623XXSP,2012-11-01 20:26:00,
2012-11-01 13:31:00,54.3,53.7,29.83,SE,135,0.0,0.0,98,0.00,,,0.00,WUHU21623XXSP,2012-11-01 20:31:00,
2012-11-01 13:36:00,54.3,53.7,29.83,SE,135,0.0,0.0,98,0.00,,,0.00,WUHU21623XXSP,2012-11-01 20:36:00,
2012-11-01 13:41:00,54.5,53.9,29.83,SE,135,0.0,0.0,98,0.00,,,0.00,WUHU21623XXSP,2012-11-01 20:41:00,
2012-11-01 13:46:00,54.5,53.9,29.83,SE,135,0.0,0.0,98,0.00,,,0.00,WUHU21623XXSP,2012-11-01 20:46:00,
2012-11-01 13:51:00,54.5,53.9,29.83,SE,135,0.0,0.0,98,0.00,,,0.00,WUHU21623XXSP,2012-11-01 20:51:00,
2012-11-01 13:56:00,54.5,53.9,29.84,ESE,112,0.0,0.0,98,0.00,,,0.00,WUHU21623XXSP,2012-11-01 20:56:00,
2012-11-01 14:01:00,54.5,53.9,29.84,ESE,112,0.0,0.0,98,0.00,,,0.00,WUHU21623XXSP,2012-11-01 21:01:00,
2012-11-01 14:06:00,54.5,53.9,29.84,SE,135,0.0,0.0,98,0.00,,,0.00,WUHU21623XXSP,2012-11-01 21:06:00,
2012-11-01 14:11:00,54.5,53.9,29.84,SE,135,0.0,0.0,98,0.00,,,0.00,WUHU21623XXSP,2012-11-01 21:11:00,
2012-11-01 14:16:00,54.5,53.9,29.84,SE,135,0.0,0.0,98,0.00,,,0.00,WUHU21623XXSP,2012-11-01 21:16:00,
2012-11-01 14:21:00,54.3,53.7,29.84,SE,135,0.0,0.0,98,0.00,,,0.00,WUHU21623XXSP,2012-11-01 21:21:00,
2012-11-01 14:26:00,54.3,53.7,29.85,SE,135,0.0,0.0,98,0.00,,,0.00,WUHU21623XXSP,2012-11-01 21:26:00,
2012-11-01 14:31:00,54.3,53.7,29.85,SE,135,0.0,0.0,98,0.00,,,0.00,WUHU21623XXSP,2012-11-01 21:31:00,
2012-11-01 14:36:00,54.3,53.7,29.85,SE,135,0.0,0.0,98,0.00,,,0.00,WUHU21623XXSP,2012-11-01 21:36:00,
2012-11-01 14:41:00,54.3,53.7,29.84,SE,135,0.0,0.0,98,0.00,,,0.00,WUHU21623XXSP,2012-11-01 21:41:00,
2012-11-01 14:46:00,54.3,53.7,29.85,ESE,112,0.0,0.0,98,0.00,,,0.00,WUHU21623XXSP,2012-11-01 21:46:00,
2012-11-01 14:51:00,54.3,53.7,29.85,ESE,112,0.0,0.0,98,0.00,,,0.00,WUHU21623XXSP,2012-11-01 21:51:00,
2012-11-01 14:56:00,54.3,53.7,29.85,ESE,112,0.0,0.0,98,0.00,,,0.00,WUHU21623XXSP,2012-11-01 21:56:00,
2012-11-01 15:01:00,54.3,53.7,29.85,ESE,112,0.0,0.0,98,0.00,,,0.00,WUHU21623XXSP,2012-11-01 22:01:00,
2012-11-01 15:06:00,54.1,53.6,29.85,ESE,112,0.0,0.0,98,0.00,,,0.00,WUHU21623XXSP,2012-11-01 22:06:00,
2012-11-01 15:11:00,54.1,53.6,29.85,NE,45,0.0,0.0,98,0.00,,,0.00,WUHU21623XXSP,2012-11-01 22:11:00,
2012-11-01 15:16:00,54.0,53.4,29.85,NE,45,0.0,0.0,98,0.00,,,0.00,WUHU21623XXSP,2012-11-01 22:16:00,
2012-11-01 15:21:00,54.0,53.4,29.85,NE,45,0.0,0.0,98,0.00,,,0.00,WUHU21623XXSP,2012-11-01 22:21:00,
2012-11-01 15:26:00,53.8,53.2,29.85,NE,45,0.0,0.0,98,0.00,,,0.00,WUHU21623XXSP,2012-11-01 22:26:00,
2012-11-01 15:31:00,53.8,53.2,29.86,NE,45,0.0,0.0,98,0.00,,,0.00,WUHU21623XXSP,2012-11-01 22:31:00,
2012-11-01 15:36:00,53.8,53.2,29.86,NE,45,0.0,0.0,98,0.00,,,0.00,WUHU21623XXSP,2012-11-01 22:36:00,
2012-11-01 15:41:00,53.8,53.2,29.86,NE,45,0.0,0.0,98,0.00,,,0.00,WUHU21623XXSP,2012-11-01 22:41:00,
2012-11-01 15:46:00,54.0,53.4,29.86,NE,45,0.0,0.0,98,0.00,,,0.00,WUHU21623XXSP,2012-11-01 22:46:00,
2012-11-01 15:51:00,54.0,53.4,29.87,NE,45,0.0,0.0,98,0.00,,,0.00,WUHU21623XXSP,2012-11-01 22:51:00,
2012-11-01 15:56:00,54.0,53.4,29.87,NE,45,0.0,0.0,98,0.00,,,0.00,WUHU21623XXSP,2012-11-01 22:56:00,
2012-11-01 16:01:00,53.8,53.2,29.87,NE,45,0.0,0.0,98,0.00,,,0.00,WUHU21623XXSP,2012-11-01 23:01:00,
2012-11-01 16:06:00,53.8,53.2,29.86,NE,45,0.0,0.0,98,0.00,,,0.00,WUHU21623XXSP,2012-11-01 23:06:00,
2012-11-01 16:11:00,53.8,53.2,29.86,NE,45,0.0,0.0,98,0.00,,,0.00,WUHU21623XXSP,2012-11-01 23:11:00,
2012-11-01 16:16:00,53.8,53.2,29.87,NE,45,0.0,0.0,98,0.00,,,0.00,WUHU21623XXSP,2012-11-01 23:16:00,
2012-11-01 16:21:00,53.8,53.2,29.87,NE,45,0.0,0.0,98,0.00,,,0.00,WUHU21623XXSP,2012-11-01 23:21:00,
2012-11-01 16:26:00,53.8,53.2,29.87,NE,45,0.0,0.0,98,0.00,,,0.00,WUHU21623XXSP,2012-11-01 23:26:00,
2012-11-01 16:31:00,53.8,53.2,29.87,NE,45,0.0,0.0,98,0.00,,,0.00,WUHU21623XXSP,2012-11-01 23:31:00,
2012-11-01 16:36:00,53.8,53.2,29.87,NE,45,0.0,0.0,98,0.00,,,0.00,WUHU21623XXSP,2012-11-01 23:36:00,
2012-11-01 16:41:00,53.4,52.8,29.87,NE,45,0.0,0.0,98,0.00,,,0.00,WUHU21623XXSP,2012-11-01 23:41:00,
2012-11-01 16:46:00,53.4,52.8,29.87,NE,45,0.0,0.0,98,0.00,,,0.00,WUHU21623XXSP,2012-11-01 23:46:00,
2012-11-01 16:51:00,53.4,52.8,29.87,NE,45,0.0,0.0,98,0.00,,,0.00,WUHU21623XXSP,2012-11-01 23:51:00,
2012-11-01 16:56:00,53.2,52.7,29.87,NE,45,0.0,0.0,98,0.00,,,0.00,WUHU21623XXSP,2012-11-01 23:56:00,
2012-11-01 17:01:00,53.2,52.7,29.87,NE,45,0.0,0.0,98,0.00,,,0.00,WUHU21623XXSP,2012-11-02 00:01:00,
2012-11-01 17:06:00,53.2,52.7,29.87,NE,45,0.0,0.0,98,0.00,,,0.00,WUHU21623XXSP,2012-11-02 00:06:00,
2012-11-01 17:11:00,52.9,52.3,29.87,NE,45,0.0,0.0,98,0.00,,,0.00,WUHU21623XXSP,2012-11-02 00:11:00,
2012-11-01 17:16:00,52.9,52.3,29.87,NE,45,0.0,0.0,98,0.00,,,0.00,WUHU21623XXSP,2012-11-02 00:16:00,
2012-11-01 17:21:00,52.9,52.3,29.87,NE,45,0.0,0.0,98,0.00,,,0.00,WUHU21623XXSP,2012-11-02 00:21:00,
2012-11-01 17:26:00,52.7,52.1,29.87,NE,45,0.0,0.0,98,0.00,,,0.00,WUHU21623XXSP,2012-11-02 00:26:00,
2012-11-01 17:31:00,52.7,52.1,29.88,NE,45,0.0,0.0,98,0.00,,,0.00,WUHU21623XXSP,2012-11-02 00:31:00,
2012-11-01 17:36:00,52.5,51.9,29.87,NE,45,0.0,0.0,98,0.00,,,0.00,WUHU21623XXSP,2012-11-02 00:36:00,
2012-11-01 17:41:00,52.5,51.9,29.88,NE,45,0.0,0.0,98,0.00,,,0.00,WUHU21623XXSP,2012-11-02 00:41:00,
2012-11-01 17:46:00,52.5,51.9,29.88,NE,45,0.0,0.0,98,0.00,,,0.00,WUHU21623XXSP,2012-11-02 00:46:00,
2012-11-01 17:51:00,52.3,51.8,29.88,NE,45,0.0,0.0,98,0.00,,,0.00,WUHU21623XXSP,2012-11-02 00:51:00,
2012-11-01 17:56:00,52.3,51.8,29.88,NE,45,0.0,0.0,98,0.00,,,0.00,WUHU21623XXSP,2012-11-02 00:56:00,
2012-11-01 18:01:00,52.3,51.8,29.88,NE,45,0.0,0.0,98,0.00,,,0.00,WUHU21623XXSP,2012-11-02 01:01:00,
2012-11-01 18:06:00,52.2,51.6,29.88,NE,45,0.0,0.0,98,0.00,,,0.00,WUHU21623XXSP,2012-11-02 01:06:00,
2012-11-01 18:11:00,52.2,51.6,29.88,NE,45,0.0,0.0,98,0.00,,,0.00,WUHU21623XXSP,2012-11-02 01:11:00,
2012-11-01 18:16:00,52.2,51.6,29.88,NE,45,0.0,0.0,98,0.00,,,0.00,WUHU21623XXSP,2012-11-02 01:16:00,
2012-11-01 18:21:00,52.0,51.6,29.89,NE,45,0.0,0.0,98,0.00,,,0.00,WUHU21623XXSP,2012-11-02 01:21:00,
2012-11-01 18:26:00,52.0,51.4,29.89,NE,45,0.0,0.0,98,0.00,,,0.00,WUHU21623XXSP,2012-11-02 01:26:00,
2012-11-01 18:31:00,52.0,51.4,29.89,NE,45,0.0,0.0,98,0.00,,,0.00,WUHU21623XXSP,2012-11-02 01:31:00,
2012-11-01 18:36:00,51.8,51.2,29.89,NE,45,0.0,0.0,98,0.00,,,0.00,WUHU21623XXSP,2012-11-02 01:36:00,
2012-11-01 18:41:00,51.8,51.2,29.89,NE,45,0.0,0.0,98,0.00,,,0.00,WUHU21623XXSP,2012-11-02 01:41:00,
2012-11-01 18:46:00,51.8,51.2,29.89,NE,45,0.0,0.0,98,0.00,,,0.00,WUHU21623XXSP,2012-11-02 01:46:00,
2012-11-01 18:51:00,51.8,51.2,29.89,NE,45,0.0,0.0,98,0.00,,,0.00,WUHU21623XXSP,2012-11-02 01:51:00,
2012-11-01 18:56:00,51.8,51.2,29.90,NE,45,0.0,0.0,98,0.00,,,0.00,WUHU21623XXSP,2012-11-02 01:56:00,
2012-11-01 19:01:00,51.6,51.0,29.90,NE,45,0.0,0.0,98,0.00,,,0.00,WUHU21623XXSP,2012-11-02 02:01:00,
2012-11-01 19:06:00,51.6,51.0,29.91,NE,45,0.0,0.0,98,0.00,,,0.00,WUHU21623XXSP,2012-11-02 02:06:00,
2012-11-01 19:11:00,51.6,51.0,29.91,NE,45,0.0,0.0,98,0.00,,,0.00,WUHU21623XXSP,2012-11-02 02:11:00,
2012-11-01 19:16:00,51.6,51.0,29.92,NE,45,0.0,0.0,98,0.00,,,0.00,WUHU21623XXSP,2012-11-02 02:16:00,
2012-11-01 19:21:00,51.6,51.0,29.92,NE,45,0.0,0.0,98,0.00,,,0.00,WUHU21623XXSP,2012-11-02 02:21:00,
2012-11-01 19:26:00,51.6,51.0,29.91,NE,45,0.0,0.0,98,0.00,,,0.00,WUHU21623XXSP,2012-11-02 02:26:00,
2012-11-01 19:31:00,51.6,51.0,29.92,NE,45,0.0,0.0,98,0.00,,,0.00,WUHU21623XXSP,2012-11-02 02:31:00,
2012-11-01 19:36:00,51.6,51.0,29.92,NE,45,0.0,0.0,98,0.00,,,0.00,WUHU21623XXSP,2012-11-02 02:36:00,
2012-11-01 19:41:00,51.6,51.0,29.92,NE,45,0.0,0.0,98,0.00,,,0.00,WUHU21623XXSP,2012-11-02 02:41:00,
2012-11-01 19:46:00,51.6,51.0,29.92,NE,45,0.0,0.0,98,0.00,,,0.00,WUHU21623XXSP,2012-11-02 02:46:00,
2012-11-01 19:51:00,51.6,51.0,29.92,NE,45,0.0,0.0,98,0.00,,,0.00,WUHU21623XXSP,2012-11-02 02:51:00,
2012-11-01 19:56:00,51.6,51.0,29.92,NE,45,0.0,0.0,98,0.00,,,0.00,WUHU21623XXSP,2012-11-02 02:56:00,
2012-11-01 20:01:00,51.6,51.0,29.92,NE,45,0.0,0.0,98,0.00,,,0.00,WUHU21623XXSP,2012-11-02 03:01:00,
2012-11-01 20:06:00,51.6,51.0,29.92,NE,45,0.0,0.0,98,0.00,,,0.00,WUHU21623XXSP,2012-11-02 03:06:00,
2012-11-01 20:11:00,51.6,51.0,29.92,NE,45,0.0,0.0,98,0.00,,,0.00,WUHU21623XXSP,2012-11-02 03:11:00,
2012-11-01 20:16:00,51.6,51.0,29.93,NE,45,0.0,0.0,98,0.00,,,0.00,WUHU21623XXSP,2012-11-02 03:16:00,
2012-11-01 20:21:00,51.6,51.0,29.93,ESE,112,0.0,0.0,98,0.00,,,0.00,WUHU21623XXSP,2012-11-02 03:21:00,
2012-11-01 20:26:00,51.6,51.0,29.93,ENE,67,0.0,0.0,98,0.00,,,0.00,WUHU21623XXSP,2012-11-02 03:26:00,
2012-11-01 20:31:00,51.6,51.0,29.93,ENE,67,0.0,0.0,98,0.00,,,0.00,WUHU21623XXSP,2012-11-02 03:31:00,
2012-11-01 20:36:00,51.6,51.0,29.93,ENE,67,0.0,0.0,98,0.00,,,0.00,WUHU21623XXSP,2012-11-02 03:36:00,
2012-11-01 20:41:00,51.6,51.0,29.93,ENE,67,0.0,0.0,98,0.00,,,0.00,WUHU21623XXSP,2012-11-02 03:41:00,
2012-11-01 20:46:00,51.4,50.9,29.93,ENE,67,0.0,0.0,98,0.00,,,0.00,WUHU21623XXSP,2012-11-02 03:46:00,
2012-11-01 20:51:00,51.4,50.9,29.93,ENE,67,0.0,0.0,98,0.00,,,0.00,WUHU21623XXSP,2012-11-02 03:51:00,
2012-11-01 20:56:00,51.4,50.9,29.94,ENE,67,0.0,0.0,98,0.00,,,0.00,WUHU21623XXSP,2012-11-02 03:56:00,
2012-11-01 21:00:00,51.4,50.9,29.94,NE,45,0.0,0.0,98,0.00,,,0.00,WUHU21623XXSP,2012-11-02 04:00:00,
2012-11-01 21:05:00,51.4,51.2,29.94,ENE,67,0.0,0.0,99,0.00,,,0.00,WUHU21623XXSP,2012-11-02 04:05:00,
2012-11-01 21:10:00,51.4,51.2,29.94,ENE,67,0.0,0.0,99,0.00,,,0.00,WUHU21623XXSP,2012-11-02 04:10:00,
2012-11-01 21:15:00,51.4,51.2,29.94,ENE,67,0.0,0.0,99,0.00,,,0.00,WUHU21623XXSP,2012-11-02 04:15:00,
2012-11-01 21:20:00,51.4,51.2,29.94,ENE,67,0.0,0.0,99,0.00,,,0.00,WUHU21623XXSP,2012-11-02 04:20:00,
2012-11-01 21:25:00,51.4,51.2,29.94,ENE,67,0.0,0.0,99,0.00,,,0.00,WUHU21623XXSP,2012-11-02 04:25:00,
2012-11-01 21:30:00,51.4,51.2,29.94,ENE,67,0.0,0.0,99,0.00,,,0.00,WUHU21623XXSP,2012-11-02 04:30:00,
2012-11-01 21:35:00,51.4,51.2,29.95,ENE,67,0.0,0.0,99,0.00,,,0.00,WUHU21623XXSP,2012-11-02 04:35:00,
2012-11-01 21:40:00,51.4,51.2,29.95,ENE,67,0.0,0.0,99,0.00,,,0.00,WUHU21623XXSP,2012-11-02 04:40:00,
2012-11-01 21:45:00,51.4,51.2,29.95,ENE,67,0.0,0.0,99,0.00,,,0.00,WUHU21623XXSP,2012-11-02 04:45:00,
2012-11-01 21:50:00,51.4,51.2,29.96,ENE,67,0.0,0.0,99,0.00,,,0.00,WUHU21623XXSP,2012-11-02 04:50:00,
2012-11-01 21:55:00,51.4,51.2,29.96,ENE,67,0.0,0.0,99,0.00,,,0.00,WUHU21623XXSP,2012-11-02 04:55:00,
2012-11-01 22:00:00,51.3,51.0,29.96,ENE,67,0.0,0.0,99,0.00,,,0.00,WUHU21623XXSP,2012-11-02 05:00:00,
2012-11-01 22:05:00,51.3,51.0,29.97,ENE,67,0.0,0.0,99,0.00,,,0.00,WUHU21623XXSP,2012-11-02 05:05:00,
2012-11-01 22:10:00,51.3,51.0,29.96,ENE,67,0.0,0.0,99,0.00,,,0.00,WUHU21623XXSP,2012-11-02 05:10:00,
2012-11-01 22:15:00,51.3,51.0,29.97,ENE,67,0.0,0.0,99,0.00,,,0.00,WUHU21623XXSP,2012-11-02 05:15:00,
2012-11-01 22:20:00,51.3,51.0,29.96,NE,45,0.0,0.0,99,0.00,,,0.00,WUHU21623XXSP,2012-11-02 05:20:00,
2012-11-01 22:25:00,51.3,51.0,29.97,ESE,112,0.0,0.0,99,0.00,,,0.00,WUHU21623XXSP,2012-11-02 05:25:00,
2012-11-01 22:30:00,51.3,51.0,29.97,NE,45,0.0,0.0,99,0.00,,,0.00,WUHU21623XXSP,2012-11-02 05:30:00,
2012-11-01 22:35:00,51.1,50.8,29.97,NE,45,0.0,0.0,99,0.00,,,0.00,WUHU21623XXSP,2012-11-02 05:35:00,
2012-11-01 22:40:00,51.1,50.8,29.97,NNE,22,0.0,0.0,99,0.00,,,0.00,WUHU21623XXSP,2012-11-02 05:40:00,
2012-11-01 22:45:00,51.1,50.8,29.97,NNE,22,0.0,0.0,99,0.00,,,0.00,WUHU21623XXSP,2012-11-02 05:45:00,
2012-11-01 22:50:00,51.1,50.8,29.97,NNE,22,0.0,0.0,99,0.00,,,0.00,WUHU21623XXSP,2012-11-02 05:50:00,
2012-11-01 22:55:00,51.1,50.8,29.97,NNE,22,0.0,0.0,99,0.00,,,0.00,WUHU21623XXSP,2012-11-02 05:55:00,
2012-11-01 23:00:00,51.1,50.8,29.97,NNE,22,0.0,0.0,99,0.00,,,0.00,WUHU21623XXSP,2012-11-02 06:00:00,
2012-11-01 23:05:00,51.1,50.8,29.97,NE,45,0.0,0.0,99,0.00,,,0.00,WUHU21623XXSP,2012-11-02 06:05:00,
2012-11-01 23:10:00,51.1,50.8,29.97,NE,45,0.0,0.0,99,0.00,,,0.00,WUHU21623XXSP,2012-11-02 06:10:00,
2012-11-01 23:15:00,51.1,50.8,29.97,ENE,67,0.0,0.0,99,0.00,,,0.00,WUHU21623XXSP,2012-11-02 06:15:00,
2012-11-01 23:20:00,51.1,50.8,29.98,ENE,67,0.0,0.0,99,0.00,,,0.00,WUHU21623XXSP,2012-11-02 06:20:00,
2012-11-01 23:25:00,51.1,50.8,29.98,ENE,67,0.0,0.0,99,0.00,,,0.00,WUHU21623XXSP,2012-11-02 06:25:00,
2012-11-01 23:30:00,51.1,50.8,29.98,ENE,67,0.0,0.0,99,0.00,,,0.00,WUHU21623XXSP,2012-11-02 06:30:00,
2012-11-01 23:35:00,51.1,50.8,29.98,ENE,67,0.0,0.0,99,0.00,,,0.00,WUHU21623XXSP,2012-11-02 06:35:00,
2012-11-01 23:40:00,51.1,50.8,29.98,ENE,67,0.0,0.0,99,0.00,,,0.00,WUHU21623XXSP,2012-11-02 06:40:00,
2012-11-01 23:45:00,51.1,50.8,29.98,ENE,67,0.0,0.0,99,0.00,,,0.00,WUHU21623XXSP,2012-11-02 06:45:00,
2012-11-01 23:50:00,51.3,51.0,29.98,ENE,67,0.0,0.0,99,0.00,,,0.00,WUHU21623XXSP,2012-11-02 06:50:00,
2012-11-01 23:55:00,51.3,51.0,29.98,ENE,67,0.0,0.0,99,0.00,,,0.00,WUHU21623XXSP,2012-11-02 06:55:00,